Dawson, Iowa
Current Conditions -  °F | °C
As of 7:35 PM on Wednesday 22 Oct 2014 (Local Time) from KPRO Reporting Station
Broken Clouds Broken Clouds  
Wind Chill: 59°   Ceiling: 7500
Heat Index: 59°   Visibility: 10mi
Dew Point: 48°   Wind: 8mph
Humidity: 68%   Direction: 140°SE
Pressure: 30.09"   Gusts: NA
Location:  41.84°N, 94.22°W
Report Text: KPRO 230035Z AUTO 14007KT 10SM SCT065 BKN075 15/09 A3009 RMK AO2 T01490090
Loading
Personal Weather Stations






























Interactive Weather Map
Tropical Storm Tracking
New forecast layout! Learn more

10-Day Weather Forecast

Advertisements
Track Severe Weather on mobile